sensor_id;sensor_type;location;lat;lon;timestamp;pressure;altitude;pressure_sealevel;temperature;humidity
23433;BME280;41331;45.412;10.992;2023-03-13T00:01:34;101171.94;;;9.47;71.97
23433;BME280;41331;45.412;10.992;2023-03-13T00:04:02;101174.13;;;9.58;71.96
23433;BME280;41331;45.412;10.992;2023-03-13T00:06:32;101183.81;;;9.65;71.69
23433;BME280;41331;45.412;10.992;2023-03-13T00:09:01;101182.19;;;9.64;71.54
23433;BME280;41331;45.412;10.992;2023-03-13T00:11:29;101184.50;;;9.56;71.74
23433;BME280;41331;45.412;10.992;2023-03-13T00:13:58;101185.53;;;9.60;72.22
23433;BME280;41331;45.412;10.992;2023-03-13T00:16:26;101187.94;;;9.62;72.09
23433;BME280;41331;45.412;10.992;2023-03-13T00:18:55;101181.31;;;9.54;72.29
23433;BME280;41331;45.412;10.992;2023-03-13T00:21:25;101177.97;;;9.44;73.50
23433;BME280;41331;45.412;10.992;2023-03-13T00:23:53;101180.28;;;9.50;73.32
23433;BME280;41331;45.412;10.992;2023-03-13T00:26:24;101177.16;;;9.43;73.64
23433;BME280;41331;45.412;10.992;2023-03-13T00:28:52;101173.84;;;9.46;73.90
23433;BME280;41331;45.412;10.992;2023-03-13T00:31:28;101178.75;;;9.58;73.36
23433;BME280;41331;45.412;10.992;2023-03-13T00:33:58;101180.28;;;9.64;73.12
23433;BME280;41331;45.412;10.992;2023-03-13T00:36:29;101167.03;;;9.49;73.79
23433;BME280;41331;45.412;10.992;2023-03-13T00:38:57;101171.94;;;9.33;75.08
23433;BME280;41331;45.412;10.992;2023-03-13T00:41:28;101178.25;;;9.28;74.33
23433;BME280;41331;45.412;10.992;2023-03-13T00:43:56;101178.75;;;8.89;76.14
23433;BME280;41331;45.412;10.992;2023-03-13T00:46:26;101175.38;;;8.78;77.55
23433;BME280;41331;45.412;10.992;2023-03-13T00:48:54;101180.03;;;8.92;77.16
23433;BME280;41331;45.412;10.992;2023-03-13T00:51:25;101182.50;;;9.21;75.97
23433;BME280;41331;45.412;10.992;2023-03-13T00:53:55;101188.03;;;9.16;76.08
23433;BME280;41331;45.412;10.992;2023-03-13T00:56:23;101177.09;;;9.34;75.70
23433;BME280;41331;45.412;10.992;2023-03-13T00:58:51;101177.16;;;9.43;75.05
23433;BME280;41331;45.412;10.992;2023-03-13T01:01:24;101165.59;;;9.38;74.80
23433;BME280;41331;45.412;10.992;2023-03-13T01:03:59;101164.19;;;9.40;75.23
23433;BME280;41331;45.412;10.992;2023-03-13T01:06:31;101166.00;;;9.45;74.54
23433;BME280;41331;45.412;10.992;2023-03-13T01:09:00;101152.00;;;9.51;74.50
23433;BME280;41331;45.412;10.992;2023-03-13T01:11:30;101153.13;;;9.50;74.57
23433;BME280;41331;45.412;10.992;2023-03-13T01:14:00;101145.97;;;9.54;73.76
23433;BME280;41331;45.412;10.992;2023-03-13T01:16:30;101148.06;;;9.71;72.82
23433;BME280;41331;45.412;10.992;2023-03-13T01:19:00;101144.31;;;9.81;71.98
23433;BME280;41331;45.412;10.992;2023-03-13T01:21:28;101153.69;;;9.75;72.00
23433;BME280;41331;45.412;10.992;2023-03-13T01:23:56;101162.44;;;9.72;71.30
23433;BME280;41331;45.412;10.992;2023-03-13T01:26:24;101156.41;;;9.75;71.25
23433;BME280;41331;45.412;10.992;2023-03-13T01:28:53;101155.78;;;9.78;70.35
23433;BME280;41331;45.412;10.992;2023-03-13T01:31:27;101150.41;;;9.50;71.49
23433;BME280;41331;45.412;10.992;2023-03-13T01:34:00;101145.97;;;9.41;71.92
23433;BME280;41331;45.412;10.992;2023-03-13T01:36:28;101155.63;;;9.60;71.42
23433;BME280;41331;45.412;10.992;2023-03-13T01:38:59;101163.69;;;9.52;71.56
23433;BME280;41331;45.412;10.992;2023-03-13T01:41:29;101156.22;;;9.57;71.30
23433;BME280;41331;45.412;10.992;2023-03-13T01:43:57;101156.44;;;9.47;71.72
23433;BME280;41331;45.412;10.992;2023-03-13T01:46:30;101147.69;;;9.37;72.66
23433;BME280;41331;45.412;10.992;2023-03-13T01:52:22;101135.38;;;9.67;72.08
23433;BME280;41331;45.412;10.992;2023-03-13T01:55:05;101132.28;;;9.59;71.90
23433;BME280;41331;45.412;10.992;2023-03-13T01:57:41;101122.69;;;9.62;71.55
23433;BME280;41331;45.412;10.992;2023-03-13T02:00:26;101124.59;;;9.75;71.44
23433;BME280;41331;45.412;10.992;2023-03-13T02:02:59;101134.88;;;9.65;71.15
23433;BME280;41331;45.412;10.992;2023-03-13T02:05:30;101138.41;;;9.65;70.98
23433;BME280;41331;45.412;10.992;2023-03-13T02:11:18;101140.13;;;9.47;71.60
23433;BME280;41331;45.412;10.992;2023-03-13T02:13:49;101149.28;;;9.38;72.38
23433;BME280;41331;45.412;10.992;2023-03-13T02:16:17;101145.97;;;9.41;71.83
23433;BME280;41331;45.412;10.992;2023-03-13T02:18:48;101149.50;;;9.41;72.42
23433;BME280;41331;45.412;10.992;2023-03-13T02:21:24;101153.63;;;9.39;72.91
23433;BME280;41331;45.412;10.992;2023-03-13T02:26:50;101151.00;;;9.47;72.52
23433;BME280;41331;45.412;10.992;2023-03-13T02:29:17;101144.97;;;9.50;73.02
23433;BME280;41331;45.412;10.992;2023-03-13T02:31:46;101141.44;;;9.50;71.88
23433;BME280;41331;45.412;10.992;2023-03-13T02:34:18;101131.19;;;9.33;72.56
23433;BME280;41331;45.412;10.992;2023-03-13T02:36:46;101120.84;;;9.35;72.62
23433;BME280;41331;45.412;10.992;2023-03-13T02:39:17;101109.56;;;9.28;74.23
23433;BME280;41331;45.412;10.992;2023-03-13T02:41:47;101110.19;;;9.25;76.02
23433;BME280;41331;45.412;10.992;2023-03-13T02:44:14;101099.81;;;9.27;76.52
23433;BME280;41331;45.412;10.992;2023-03-13T02:46:44;101106.94;;;9.37;73.69
23433;BME280;41331;45.412;10.992;2023-03-13T02:49:33;101104.84;;;9.20;74.04
23433;BME280;41331;45.412;10.992;2023-03-13T02:52:20;101110.66;;;9.27;73.39
23433;BME280;41331;45.412;10.992;2023-03-13T02:54:55;101110.19;;;9.25;73.69
23433;BME280;41331;45.412;10.992;2023-03-13T02:57:24;101103.00;;;9.43;73.13
23433;BME280;41331;45.412;10.992;2023-03-13T02:59:51;101120.41;;;9.42;73.18
23433;BME280;41331;45.412;10.992;2023-03-13T03:02:19;101124.34;;;9.36;72.98
23433;BME280;41331;45.412;10.992;2023-03-13T03:04:46;101131.81;;;9.30;73.99
23433;BME280;41331;45.412;10.992;2023-03-13T03:07:14;101136.63;;;9.33;73.80
23433;BME280;41331;45.412;10.992;2023-03-13T03:09:41;101135.22;;;9.49;73.61
23433;BME280;41331;45.412;10.992;2023-03-13T03:12:15;101140.31;;;9.65;72.66
23433;BME280;41331;45.412;10.992;2023-03-13T03:14:42;101149.66;;;9.72;71.55
23433;BME280;41331;45.412;10.992;2023-03-13T03:17:10;101142.19;;;9.78;71.30
23433;BME280;41331;45.412;10.992;2023-03-13T03:19:37;101137.38;;;9.75;71.19
23433;BME280;41331;45.412;10.992;2023-03-13T03:22:05;101131.75;;;9.71;71.56
23433;BME280;41331;45.412;10.992;2023-03-13T03:24:32;101142.94;;;9.42;74.69
23433;BME280;41331;45.412;10.992;2023-03-13T03:27:03;101146.19;;;9.44;73.59
23433;BME280;41331;45.412;10.992;2023-03-13T03:29:37;101159.66;;;9.36;74.01
23433;BME280;41331;45.412;10.992;2023-03-13T03:32:05;101165.69;;;9.32;74.54
23433;BME280;41331;45.412;10.992;2023-03-13T03:34:32;101170.94;;;9.56;73.65
23433;BME280;41331;45.412;10.992;2023-03-13T03:36:59;101180.88;;;9.47;74.95
23433;BME280;41331;45.412;10.992;2023-03-13T03:39:28;101170.44;;;9.54;75.38
23433;BME280;41331;45.412;10.992;2023-03-13T03:41:55;101175.44;;;9.61;75.15
23433;BME280;41331;45.412;10.992;2023-03-13T03:44:23;101178.06;;;9.52;74.89
23433;BME280;41331;45.412;10.992;2023-03-13T03:46:56;101178.28;;;9.56;74.66
23433;BME280;41331;45.412;10.992;2023-03-13T03:49:26;101173.38;;;9.44;74.75
23433;BME280;41331;45.412;10.992;2023-03-13T03:51:54;101174.06;;;9.36;74.73
23433;BME280;41331;45.412;10.992;2023-03-13T03:54:27;101165.59;;;9.38;75.16
23433;BME280;41331;45.412;10.992;2023-03-13T03:56:56;101170.13;;;9.28;75.91
23433;BME280;41331;45.412;10.992;2023-03-13T03:59:23;101163.69;;;9.38;75.96
23433;BME280;41331;45.412;10.992;2023-03-13T04:01:56;101172.34;;;9.40;75.42
23433;BME280;41331;45.412;10.992;2023-03-13T04:04:26;101175.34;;;9.39;75.26
23433;BME280;41331;45.412;10.992;2023-03-13T04:07:00;101178.56;;;9.27;75.70
23433;BME280;41331;45.412;10.992;2023-03-13T04:09:29;101173.84;;;9.32;75.74
23433;BME280;41331;45.412;10.992;2023-03-13T04:11:59;101181.50;;;9.44;75.02
23433;BME280;41331;45.412;10.992;2023-03-13T04:14:28;101175.66;;;9.51;74.98
23433;BME280;41331;45.412;10.992;2023-03-13T04:16:55;101181.00;;;9.56;74.83
23433;BME280;41331;45.412;10.992;2023-03-13T04:19:24;101185.41;;;9.52;74.84
23433;BME280;41331;45.412;10.992;2023-03-13T04:21:52;101182.00;;;9.60;74.56
23433;BME280;41331;45.412;10.992;2023-03-13T04:24:19;101184.19;;;9.72;74.61
23433;BME280;41331;45.412;10.992;2023-03-13T04:26:47;101181.38;;;9.63;74.82
23433;BME280;41331;45.412;10.992;2023-03-13T04:29:14;101175.25;;;9.71;74.32
23433;BME280;41331;45.412;10.992;2023-03-13T04:31:49;101175.25;;;9.71;74.50
23433;BME280;41331;45.412;10.992;2023-03-13T04:34:29;101166.78;;;9.73;74.23
23433;BME280;41331;45.412;10.992;2023-03-13T04:37:07;101170.91;;;9.70;74.26
23433;BME280;41331;45.412;10.992;2023-03-13T04:39:39;101169.19;;;9.74;73.82
23433;BME280;41331;45.412;10.992;2023-03-13T04:42:34;101173.09;;;9.82;73.85
23433;BME280;41331;45.412;10.992;2023-03-13T04:45:12;101163.66;;;9.79;73.45
23433;BME280;41331;45.412;10.992;2023-03-13T04:47:59;101163.34;;;9.67;73.91
23433;BME280;41331;45.412;10.992;2023-03-13T04:50:39;101161.66;;;9.71;74.31
23433;BME280;41331;45.412;10.992;2023-03-13T04:53:26;101149.34;;;9.74;73.95
23433;BME280;41331;45.412;10.992;2023-03-13T04:56:02;101153.88;;;9.78;73.39
23433;BME280;41331;45.412;10.992;2023-03-13T04:58:48;101156.06;;;9.90;73.23
23433;BME280;41331;45.412;10.992;2023-03-13T05:01:34;101148.72;;;9.91;73.45
23433;BME280;41331;45.412;10.992;2023-03-13T05:04:24;101156.25;;;9.94;73.11
23433;BME280;41331;45.412;10.992;2023-03-13T05:07:02;101158.81;;;9.90;73.27
23433;BME280;41331;45.412;10.992;2023-03-13T05:09:48;101161.63;;;9.85;73.53
23433;BME280;41331;45.412;10.992;2023-03-13T05:12:34;101169.47;;;9.86;74.00
23433;BME280;41331;45.412;10.992;2023-03-13T05:15:28;101169.47;;;9.86;74.33
23433;BME280;41331;45.412;10.992;2023-03-13T05:18:14;101172.88;;;9.92;73.71
23433;BME280;41331;45.412;10.992;2023-03-13T05:20:48;101169.03;;;9.93;73.75
23433;BME280;41331;45.412;10.992;2023-03-13T05:23:32;101164.25;;;9.90;73.30
23433;BME280;41331;45.412;10.992;2023-03-13T05:26:23;101161.00;;;9.88;73.33
23433;BME280;41331;45.412;10.992;2023-03-13T05:29:03;101158.91;;;9.85;73.98
23433;BME280;41331;45.412;10.992;2023-03-13T05:31:49;101162.22;;;9.82;74.30
23433;BME280;41331;45.412;10.992;2023-03-13T05:34:37;101165.56;;;9.79;74.49
23433;BME280;41331;45.412;10.992;2023-03-13T05:37:22;101157.50;;;9.74;75.21
23433;BME280;41331;45.412;10.992;2023-03-13T05:40:01;101176.44;;;9.79;74.92
23433;BME280;41331;45.412;10.992;2023-03-13T05:42:58;101179.56;;;9.72;75.00
23433;BME280;41331;45.412;10.992;2023-03-13T05:45:51;101172.41;;;9.63;75.65
23433;BME280;41331;45.412;10.992;2023-03-13T05:48:30;101173.94;;;9.55;75.98
23433;BME280;41331;45.412;10.992;2023-03-13T05:51:04;101173.94;;;9.55;76.72
23433;BME280;41331;45.412;10.992;2023-03-13T05:53:57;101163.28;;;9.45;77.32
23433;BME280;41331;45.412;10.992;2023-03-13T05:56:36;101170.94;;;9.29;79.50
23433;BME280;41331;45.412;10.992;2023-03-13T05:59:32;101172.84;;;9.42;78.08
23433;BME280;41331;45.412;10.992;2023-03-13T06:02:28;101168.91;;;9.48;77.83
23433;BME280;41331;45.412;10.992;2023-03-13T06:04:57;101174.22;;;9.53;77.43
23433;BME280;41331;45.412;10.992;2023-03-13T06:07:24;101170.72;;;9.53;77.30
23433;BME280;41331;45.412;10.992;2023-03-13T06:09:52;101178.88;;;9.53;77.50
23433;BME280;41331;45.412;10.992;2023-03-13T06:12:19;101179.06;;;9.56;77.19
23433;BME280;41331;45.412;10.992;2023-03-13T06:14:47;101188.13;;;9.66;77.09
23433;BME280;41331;45.412;10.992;2023-03-13T06:17:14;101186.81;;;9.77;76.76
23433;BME280;41331;45.412;10.992;2023-03-13T06:19:41;101191.53;;;9.71;77.43
23433;BME280;41331;45.412;10.992;2023-03-13T06:22:09;101193.75;;;9.83;75.99
23433;BME280;41331;45.412;10.992;2023-03-13T06:24:36;101191.53;;;9.85;76.63
23433;BME280;41331;45.412;10.992;2023-03-13T06:27:04;101199.97;;;9.83;76.54
23433;BME280;41331;45.412;10.992;2023-03-13T06:29:31;101189.09;;;9.83;75.88
23433;BME280;41331;45.412;10.992;2023-03-13T06:31:58;101195.44;;;9.93;76.50
23433;BME280;41331;45.412;10.992;2023-03-13T06:34:26;101188.19;;;9.88;77.93
23433;BME280;41331;45.412;10.992;2023-03-13T06:36:53;101199.16;;;9.97;76.96
23433;BME280;41331;45.412;10.992;2023-03-13T06:39:21;101193.41;;;9.98;75.83
23433;BME280;41331;45.412;10.992;2023-03-13T06:41:50;101202.34;;;10.12;77.01
23433;BME280;41331;45.412;10.992;2023-03-13T06:44:18;101201.03;;;10.24;76.38
23433;BME280;41331;45.412;10.992;2023-03-13T06:46:45;101206.88;;;10.31;74.37
23433;BME280;41331;45.412;10.992;2023-03-13T06:49:12;101219.78;;;10.25;74.88
23433;BME280;41331;45.412;10.992;2023-03-13T06:51:40;101231.22;;;10.22;74.86
23433;BME280;41331;45.412;10.992;2023-03-13T06:54:07;101229.53;;;10.26;74.07
23433;BME280;41331;45.412;10.992;2023-03-13T06:56:34;101221.59;;;10.30;74.14
23433;BME280;41331;45.412;10.992;2023-03-13T06:59:02;101209.59;;;10.31;72.74
23433;BME280;41331;45.412;10.992;2023-03-13T07:01:29;101201.22;;;10.27;74.51
23433;BME280;41331;45.412;10.992;2023-03-13T07:03:58;101198.47;;;10.41;73.22
23433;BME280;41331;45.412;10.992;2023-03-13T07:06:25;101197.94;;;10.39;73.68
23433;BME280;41331;45.412;10.992;2023-03-13T07:08:53;101207.31;;;10.47;73.61
23433;BME280;41331;45.412;10.992;2023-03-13T07:11:20;101210.22;;;10.50;73.18
23433;BME280;41331;45.412;10.992;2023-03-13T07:13:48;101215.09;;;10.62;73.29
23433;BME280;41331;45.412;10.992;2023-03-13T07:16:15;101214.53;;;10.74;72.60
23433;BME280;41331;45.412;10.992;2023-03-13T07:18:42;101215.97;;;10.71;70.28
23433;BME280;41331;45.412;10.992;2023-03-13T07:21:13;101205.94;;;10.80;72.98
23433;BME280;41331;45.412;10.992;2023-03-13T07:23:41;101215.41;;;10.83;71.71
23433;BME280;41331;45.412;10.992;2023-03-13T07:26:14;101218.25;;;11.00;72.02
23433;BME280;41331;45.412;10.992;2023-03-13T07:28:42;101220.31;;;11.03;72.79
23433;BME280;41331;45.412;10.992;2023-03-13T07:31:17;101223.38;;;11.02;72.65
23433;BME280;41331;45.412;10.992;2023-03-13T07:33:46;101224.41;;;11.14;70.64
23433;BME280;41331;45.412;10.992;2023-03-13T07:36:14;101212.25;;;11.21;70.28
23433;BME280;41331;45.412;10.992;2023-03-13T07:38:42;101212.53;;;11.19;70.11
23433;BME280;41331;45.412;10.992;2023-03-13T07:41:12;101213.31;;;11.42;69.97
23433;BME280;41331;45.412;10.992;2023-03-13T07:43:40;101215.69;;;11.44;70.89
23433;BME280;41331;45.412;10.992;2023-03-13T07:46:13;101202.91;;;11.53;67.86
23433;BME280;41331;45.412;10.992;2023-03-13T07:48:41;101203.53;;;11.41;67.36
23433;BME280;41331;45.412;10.992;2023-03-13T07:51:12;101200.63;;;11.37;68.79
23433;BME280;41331;45.412;10.992;2023-03-13T07:53:41;101201.34;;;11.60;68.62
23433;BME280;41331;45.412;10.992;2023-03-13T07:56:10;101199.75;;;11.68;68.38
23433;BME280;41331;45.412;10.992;2023-03-13T07:58:40;101200.31;;;11.87;68.48
23433;BME280;41331;45.412;10.992;2023-03-13T08:01:12;101204.97;;;11.96;67.09
23433;BME280;41331;45.412;10.992;2023-03-13T08:03:40;101202.56;;;11.94;67.83
23433;BME280;41331;45.412;10.992;2023-03-13T08:06:11;101188.59;;;12.04;65.21
23433;BME280;41331;45.412;10.992;2023-03-13T08:08:38;101187.03;;;12.21;65.96
23433;BME280;41331;45.412;10.992;2023-03-13T08:11:11;101195.53;;;12.10;65.49
23433;BME280;41331;45.412;10.992;2023-03-13T08:13:40;101191.97;;;11.92;66.40
23433;BME280;41331;45.412;10.992;2023-03-13T08:16:15;101192.00;;;12.27;64.96
23433;BME280;41331;45.412;10.992;2023-03-13T08:18:45;101187.50;;;12.14;64.46
23433;BME280;41331;45.412;10.992;2023-03-13T08:21:23;101185.56;;;11.97;64.11
23433;BME280;41331;45.412;10.992;2023-03-13T08:23:53;101172.72;;;12.24;63.76
23433;BME280;41331;45.412;10.992;2023-03-13T08:26:23;101180.59;;;12.42;63.33
23433;BME280;41331;45.412;10.992;2023-03-13T08:28:55;101181.06;;;12.70;63.51
23433;BME280;41331;45.412;10.992;2023-03-13T08:31:25;101192.16;;;13.21;61.79
23433;BME280;41331;45.412;10.992;2023-03-13T08:33:54;101191.88;;;13.52;59.31
23433;BME280;41331;45.412;10.992;2023-03-13T08:36:25;101205.69;;;13.85;58.94
23433;BME280;41331;45.412;10.992;2023-03-13T08:38:57;101204.97;;;14.18;56.61
23433;BME280;41331;45.412;10.992;2023-03-13T08:41:27;101212.63;;;14.45;56.28
23433;BME280;41331;45.412;10.992;2023-03-13T08:43:56;101211.66;;;14.71;56.00
23433;BME280;41331;45.412;10.992;2023-03-13T08:46:24;101206.63;;;14.73;54.56
23433;BME280;41331;45.412;10.992;2023-03-13T08:48:53;101213.69;;;15.07;54.64
23433;BME280;41331;45.412;10.992;2023-03-13T08:51:23;101202.50;;;15.24;53.31
23433;BME280;41331;45.412;10.992;2023-03-13T08:53:52;101218.59;;;15.14;53.95
23433;BME280;41331;45.412;10.992;2023-03-13T08:56:21;101223.88;;;14.86;54.39
23433;BME280;41331;45.412;10.992;2023-03-13T08:58:51;101220.16;;;14.36;56.36
23433;BME280;41331;45.412;10.992;2023-03-13T09:01:19;101227.81;;;14.43;55.31
23433;BME280;41331;45.412;10.992;2023-03-13T09:03:47;101228.03;;;14.17;56.72
23433;BME280;41331;45.412;10.992;2023-03-13T09:06:14;101230.75;;;14.38;55.35
23433;BME280;41331;45.412;10.992;2023-03-13T09:08:42;101220.13;;;14.78;53.82
23433;BME280;41331;45.412;10.992;2023-03-13T09:11:17;101220.56;;;15.25;52.43
23433;BME280;41331;45.412;10.992;2023-03-13T09:13:47;101222.06;;;15.60;49.79
23433;BME280;41331;45.412;10.992;2023-03-13T09:16:20;101221.84;;;15.89;49.27
23433;BME280;41331;45.412;10.992;2023-03-13T09:18:50;101215.53;;;16.81;45.84
23433;BME280;41331;45.412;10.992;2023-03-13T09:21:25;101214.50;;;16.46;45.36
23433;BME280;41331;45.412;10.992;2023-03-13T09:23:54;101213.75;;;16.33;47.04
23433;BME280;41331;45.412;10.992;2023-03-13T09:26:22;101216.97;;;16.63;47.39
23433;BME280;41331;45.412;10.992;2023-03-13T09:28:50;101211.31;;;17.16;46.48
23433;BME280;41331;45.412;10.992;2023-03-13T09:31:28;101207.78;;;17.78;44.53
23433;BME280;41331;45.412;10.992;2023-03-13T09:33:56;101198.78;;;17.81;44.60
23433;BME280;41331;45.412;10.992;2023-03-13T09:36:24;101198.53;;;17.55;42.76
23433;BME280;41331;45.412;10.992;2023-03-13T09:38:54;101204.06;;;17.39;42.58
23433;BME280;41331;45.412;10.992;2023-03-13T09:41:34;101205.47;;;17.17;40.86
23433;BME280;41331;45.412;10.992;2023-03-13T09:44:07;101199.16;;;17.48;41.84
23433;BME280;41331;45.412;10.992;2023-03-13T10:00:13;101191.66;;;16.42;43.82
23433;BME280;41331;45.412;10.992;2023-03-13T10:02:45;101182.53;;;16.81;42.07
23433;BME280;41331;45.412;10.992;2023-03-13T10:05:20;101182.41;;;16.62;44.60
23433;BME280;41331;45.412;10.992;2023-03-13T10:07:48;101185.66;;;16.52;43.80
23433;BME280;41331;45.412;10.992;2023-03-13T10:10:33;101192.38;;;16.54;43.04
23433;BME280;41331;45.412;10.992;2023-03-13T10:16:02;101190.88;;;16.29;42.72
23433;BME280;41331;45.412;10.992;2023-03-13T10:18:33;101194.41;;;16.01;44.74
23433;BME280;41331;45.412;10.992;2023-03-13T10:21:13;101187.47;;;16.20;45.14
23433;BME280;41331;45.412;10.992;2023-03-13T10:23:49;101190.78;;;16.81;42.87
23433;BME280;41331;45.412;10.992;2023-03-13T10:26:22;101190.31;;;17.07;43.22
23433;BME280;41331;45.412;10.992;2023-03-13T10:28:50;101186.78;;;16.51;42.57
23433;BME280;41331;45.412;10.992;2023-03-13T10:31:31;101192.72;;;16.81;43.10
23433;BME280;41331;45.412;10.992;2023-03-13T10:34:07;101186.53;;;16.56;43.66
23433;BME280;41331;45.412;10.992;2023-03-13T10:36:48;101177.25;;;16.89;43.46
23433;BME280;41331;45.412;10.992;2023-03-13T10:39:18;101182.03;;;16.36;44.63
23433;BME280;41331;45.412;10.992;2023-03-13T10:41:47;101184.47;;;15.97;45.15
23433;BME280;41331;45.412;10.992;2023-03-13T10:44:20;101169.75;;;15.77;44.50
23433;BME280;41331;45.412;10.992;2023-03-13T10:46:49;101172.69;;;15.60;45.21
23433;BME280;41331;45.412;10.992;2023-03-13T10:49:19;101168.00;;;15.48;45.65
23433;BME280;41331;45.412;10.992;2023-03-13T10:51:52;101162.19;;;15.62;44.43
23433;BME280;41331;45.412;10.992;2023-03-13T10:54:31;101157.72;;;15.82;44.97
23433;BME280;41331;45.412;10.992;2023-03-13T10:57:28;101155.53;;;15.75;45.74
23433;BME280;41331;45.412;10.992;2023-03-13T10:59:56;101159.75;;;15.60;46.48
23433;BME280;41331;45.412;10.992;2023-03-13T11:02:30;101166.03;;;15.61;45.58
23433;BME280;41331;45.412;10.992;2023-03-13T11:04:58;101163.31;;;15.24;46.09
23433;BME280;41331;45.412;10.992;2023-03-13T11:07:32;101158.75;;;15.52;45.73
23433;BME280;41331;45.412;10.992;2023-03-13T11:10:01;101159.09;;;15.39;45.85
23433;BME280;41331;45.412;10.992;2023-03-13T11:12:33;101154.81;;;16.02;45.20
23433;BME280;41331;45.412;10.992;2023-03-13T11:15:01;101144.69;;;16.47;44.55
23433;BME280;41331;45.412;10.992;2023-03-13T11:17:36;101137.50;;;17.33;43.87
23433;BME280;41331;45.412;10.992;2023-03-13T11:25:22;101121.34;;;16.85;43.28
23433;BME280;41331;45.412;10.992;2023-03-13T11:33:28;101117.59;;;19.22;38.08
23433;BME280;41331;45.412;10.992;2023-03-13T11:50:34;101099.41;;;20.37;35.53
23433;BME280;41331;45.412;10.992;2023-03-13T12:01:09;101076.00;;;19.60;36.90
23433;BME280;41331;45.412;10.992;2023-03-13T12:06:25;101069.25;;;19.88;35.63
23433;BME280;41331;45.412;10.992;2023-03-13T12:14:58;101061.28;;;19.53;38.00
23433;BME280;41331;45.412;10.992;2023-03-13T12:20:19;101043.19;;;19.85;37.90
23433;BME280;41331;45.412;10.992;2023-03-13T12:23:13;101032.56;;;20.65;35.32
23433;BME280;41331;45.412;10.992;2023-03-13T12:25:44;101029.88;;;20.32;35.59
23433;BME280;41331;45.412;10.992;2023-03-13T12:31:06;101039.00;;;19.99;35.39
23433;BME280;41331;45.412;10.992;2023-03-13T12:36:12;101031.41;;;19.32;37.44
23433;BME280;41331;45.412;10.992;2023-03-13T12:38:52;101022.78;;;19.07;37.06
23433;BME280;41331;45.412;10.992;2023-03-13T12:41:33;101019.31;;;18.37;38.44
23433;BME280;41331;45.412;10.992;2023-03-13T12:44:10;101003.91;;;18.82;38.26
23433;BME280;41331;45.412;10.992;2023-03-13T12:49:56;100997.25;;;19.40;38.74
23433;BME280;41331;45.412;10.992;2023-03-13T12:57:58;100974.63;;;19.01;37.88
23433;BME280;41331;45.412;10.992;2023-03-13T13:00:34;100970.66;;;18.72;38.33
23433;BME280;41331;45.412;10.992;2023-03-13T13:03:36;100965.50;;;18.70;38.28
23433;BME280;41331;45.412;10.992;2023-03-13T13:06:13;100959.38;;;18.57;37.63
23433;BME280;41331;45.412;10.992;2023-03-13T13:08:43;100960.16;;;18.81;38.50
23433;BME280;41331;45.412;10.992;2023-03-13T13:16:50;100946.13;;;18.67;38.83
23433;BME280;41331;45.412;10.992;2023-03-13T13:24:58;100936.25;;;18.66;38.09
23433;BME280;41331;45.412;10.992;2023-03-13T13:32:41;100931.88;;;18.61;38.69
23433;BME280;41331;45.412;10.992;2023-03-13T13:37:39;100924.97;;;19.01;38.69
23433;BME280;41331;45.412;10.992;2023-03-13T13:40:20;100925.09;;;18.55;38.31
23433;BME280;41331;45.412;10.992;2023-03-13T13:42:50;100922.88;;;18.64;38.59
23433;BME280;41331;45.412;10.992;2023-03-13T13:48:26;100915.41;;;18.42;38.19
23433;BME280;41331;45.412;10.992;2023-03-13T13:56:35;100910.75;;;18.69;38.21
23433;BME280;41331;45.412;10.992;2023-03-13T14:04:35;100902.59;;;19.06;37.34
23433;BME280;41331;45.412;10.992;2023-03-13T14:07:05;100891.84;;;19.31;37.46
23433;BME280;41331;45.412;10.992;2023-03-13T14:09:59;100896.16;;;19.62;37.18
23433;BME280;41331;45.412;10.992;2023-03-13T14:12:36;100890.28;;;19.30;37.38
23433;BME280;41331;45.412;10.992;2023-03-13T14:17:40;100885.69;;;19.11;37.50
23433;BME280;41331;45.412;10.992;2023-03-13T14:23:00;100880.59;;;19.47;37.55
23433;BME280;41331;45.412;10.992;2023-03-13T14:25:46;100875.34;;;19.34;37.48
23433;BME280;41331;45.412;10.992;2023-03-13T14:28:25;100881.06;;;19.19;38.43
23433;BME280;41331;45.412;10.992;2023-03-13T14:30:56;100879.06;;;18.85;38.80
23433;BME280;41331;45.412;10.992;2023-03-13T14:33:25;100872.31;;;18.79;38.43
23433;BME280;41331;45.412;10.992;2023-03-13T14:35:55;100873.22;;;18.91;39.73
23433;BME280;41331;45.412;10.992;2023-03-13T14:38:26;100868.97;;;18.97;39.07
23433;BME280;41331;45.412;10.992;2023-03-13T14:40:56;100862.84;;;19.10;39.16
23433;BME280;41331;45.412;10.992;2023-03-13T14:43:37;100864.56;;;18.92;40.07
23433;BME280;41331;45.412;10.992;2023-03-13T14:46:28;100867.06;;;19.01;38.79
23433;BME280;41331;45.412;10.992;2023-03-13T14:49:04;100868.56;;;18.42;39.26
23433;BME280;41331;45.412;10.992;2023-03-13T14:51:37;100858.63;;;18.33;40.32
23433;BME280;41331;45.412;10.992;2023-03-13T14:54:20;100842.91;;;18.11;41.19
23433;BME280;41331;45.412;10.992;2023-03-13T14:59:37;100837.44;;;18.37;41.31
23433;BME280;41331;45.412;10.992;2023-03-13T15:02:21;100833.66;;;18.23;40.33
23433;BME280;41331;45.412;10.992;2023-03-13T15:07:36;100831.63;;;18.46;40.61
23433;BME280;41331;45.412;10.992;2023-03-13T15:10:22;100827.97;;;18.12;40.99
23433;BME280;41331;45.412;10.992;2023-03-13T15:12:50;100825.59;;;18.37;40.80
23433;BME280;41331;45.412;10.992;2023-03-13T15:15:18;100822.16;;;18.44;41.68
23433;BME280;41331;45.412;10.992;2023-03-13T15:17:46;100814.41;;;18.00;43.45
23433;BME280;41331;45.412;10.992;2023-03-13T15:20:14;100813.44;;;17.89;43.20
23433;BME280;41331;45.412;10.992;2023-03-13T15:22:44;100802.38;;;17.62;43.08